sensor_id;sensor_type;location;lat;lon;timestamp;temperature;humidity
45229;DHT22;30967;51.728;8.682;2022-11-11T00:01:25;12.40;99.90
45229;DHT22;30967;51.728;8.682;2022-11-11T00:04:10;12.40;99.90
45229;DHT22;30967;51.728;8.682;2022-11-11T00:06:35;12.40;99.90
45229;DHT22;30967;51.728;8.682;2022-11-11T00:09:02;12.40;99.90
45229;DHT22;30967;51.728;8.682;2022-11-11T00:11:36;12.40;99.90
45229;DHT22;30967;51.728;8.682;2022-11-11T00:14:09;12.40;99.90
45229;DHT22;30967;51.728;8.682;2022-11-11T00:16:35;12.30;99.90
45229;DHT22;30967;51.728;8.682;2022-11-11T00:19:19;12.40;99.90
45229;DHT22;30967;51.728;8.682;2022-11-11T00:22:20;12.40;99.90
45229;DHT22;30967;51.728;8.682;2022-11-11T00:25:08;12.30;99.90
45229;DHT22;30967;51.728;8.682;2022-11-11T00:27:36;12.30;99.90
45229;DHT22;30967;51.728;8.682;2022-11-11T00:30:03;12.30;99.90
45229;DHT22;30967;51.728;8.682;2022-11-11T00:32:31;12.30;99.90
45229;DHT22;30967;51.728;8.682;2022-11-11T00:34:58;12.30;99.90
45229;DHT22;30967;51.728;8.682;2022-11-11T00:37:44;12.30;99.90
45229;DHT22;30967;51.728;8.682;2022-11-11T00:40:11;12.30;99.90
45229;DHT22;30967;51.728;8.682;2022-11-11T00:43:01;12.30;99.90
45229;DHT22;30967;51.728;8.682;2022-11-11T00:45:28;12.30;99.90
45229;DHT22;30967;51.728;8.682;2022-11-11T00:47:58;12.20;99.90
45229;DHT22;30967;51.728;8.682;2022-11-11T00:50:42;12.20;99.90
45229;DHT22;30967;51.728;8.682;2022-11-11T00:53:40;12.20;99.90
45229;DHT22;30967;51.728;8.682;2022-11-11T00:56:05;12.30;99.90
45229;DHT22;30967;51.728;8.682;2022-11-11T00:58:31;12.30;99.90
45229;DHT22;30967;51.728;8.682;2022-11-11T01:00:57;12.20;99.90
45229;DHT22;30967;51.728;8.682;2022-11-11T01:03:22;12.20;99.90
45229;DHT22;30967;51.728;8.682;2022-11-11T01:05:48;12.20;99.90
45229;DHT22;30967;51.728;8.682;2022-11-11T01:08:14;12.10;99.90
45229;DHT22;30967;51.728;8.682;2022-11-11T01:10:39;12.10;99.90
45229;DHT22;30967;51.728;8.682;2022-11-11T01:13:16;12.10;99.90
45229;DHT22;30967;51.728;8.682;2022-11-11T01:15:45;12.10;99.90
45229;DHT22;30967;51.728;8.682;2022-11-11T01:18:16;12.10;99.90
45229;DHT22;30967;51.728;8.682;2022-11-11T01:20:42;12.10;99.90
45229;DHT22;30967;51.728;8.682;2022-11-11T01:23:09;12.10;99.90
45229;DHT22;30967;51.728;8.682;2022-11-11T01:25:37;12.00;99.90
45229;DHT22;30967;51.728;8.682;2022-11-11T01:28:04;12.00;99.90
45229;DHT22;30967;51.728;8.682;2022-11-11T01:30:31;12.00;99.90
45229;DHT22;30967;51.728;8.682;2022-11-11T01:32:57;12.00;99.90
45229;DHT22;30967;51.728;8.682;2022-11-11T01:35:23;11.90;99.90
45229;DHT22;30967;51.728;8.682;2022-11-11T01:37:49;11.90;99.90
45229;DHT22;30967;51.728;8.682;2022-11-11T01:40:15;11.90;99.90
45229;DHT22;30967;51.728;8.682;2022-11-11T01:42:50;11.90;99.90
45229;DHT22;30967;51.728;8.682;2022-11-11T01:45:54;11.90;99.90
45229;DHT22;30967;51.728;8.682;2022-11-11T01:48:34;11.80;99.90
45229;DHT22;30967;51.728;8.682;2022-11-11T01:51:35;11.90;99.90
45229;DHT22;30967;51.728;8.682;2022-11-11T01:54:09;11.80;99.90
45229;DHT22;30967;51.728;8.682;2022-11-11T01:56:37;11.80;99.90
45229;DHT22;30967;51.728;8.682;2022-11-11T01:59:12;11.80;99.90
45229;DHT22;30967;51.728;8.682;2022-11-11T02:01:39;11.80;99.90
45229;DHT22;30967;51.728;8.682;2022-11-11T02:04:06;11.80;99.90
45229;DHT22;30967;51.728;8.682;2022-11-11T02:06:58;11.80;99.90
45229;DHT22;30967;51.728;8.682;2022-11-11T02:09:25;11.70;99.90
45229;DHT22;30967;51.728;8.682;2022-11-11T02:12:02;11.80;99.90
45229;DHT22;30967;51.728;8.682;2022-11-11T02:14:52;11.80;99.90
45229;DHT22;30967;51.728;8.682;2022-11-11T02:17:18;11.80;99.90
45229;DHT22;30967;51.728;8.682;2022-11-11T02:19:49;11.70;99.90
45229;DHT22;30967;51.728;8.682;2022-11-11T02:22:41;11.70;99.90
45229;DHT22;30967;51.728;8.682;2022-11-11T02:25:16;11.80;99.90
45229;DHT22;30967;51.728;8.682;2022-11-11T02:27:47;11.70;99.90
45229;DHT22;30967;51.728;8.682;2022-11-11T02:30:31;11.70;99.90
45229;DHT22;30967;51.728;8.682;2022-11-11T02:33:02;11.80;99.90
45229;DHT22;30967;51.728;8.682;2022-11-11T02:35:36;11.70;99.90
45229;DHT22;30967;51.728;8.682;2022-11-11T02:38:14;11.70;99.90
45229;DHT22;30967;51.728;8.682;2022-11-11T02:40:44;11.70;99.90
45229;DHT22;30967;51.728;8.682;2022-11-11T02:43:37;11.70;99.90
45229;DHT22;30967;51.728;8.682;2022-11-11T02:46:05;11.70;99.90
45229;DHT22;30967;51.728;8.682;2022-11-11T02:48:43;11.60;99.90
45229;DHT22;30967;51.728;8.682;2022-11-11T02:51:08;11.70;99.90
45229;DHT22;30967;51.728;8.682;2022-11-11T02:53:34;11.60;99.90
45229;DHT22;30967;51.728;8.682;2022-11-11T02:56:04;11.60;99.90
45229;DHT22;30967;51.728;8.682;2022-11-11T02:58:32;11.60;99.90
45229;DHT22;30967;51.728;8.682;2022-11-11T03:00:58;11.60;99.90
45229;DHT22;30967;51.728;8.682;2022-11-11T03:03:23;11.60;99.90
45229;DHT22;30967;51.728;8.682;2022-11-11T03:05:49;11.60;99.90
45229;DHT22;30967;51.728;8.682;2022-11-11T03:08:14;11.60;99.90
45229;DHT22;30967;51.728;8.682;2022-11-11T03:10:40;11.60;99.90
45229;DHT22;30967;51.728;8.682;2022-11-11T03:13:06;11.60;99.90
45229;DHT22;30967;51.728;8.682;2022-11-11T03:15:32;11.50;99.90
45229;DHT22;30967;51.728;8.682;2022-11-11T03:17:57;11.50;99.90
45229;DHT22;30967;51.728;8.682;2022-11-11T03:20:23;11.50;99.90
45229;DHT22;30967;51.728;8.682;2022-11-11T03:23:22;11.50;99.90
45229;DHT22;30967;51.728;8.682;2022-11-11T03:25:53;11.50;99.90
45229;DHT22;30967;51.728;8.682;2022-11-11T03:28:20;11.50;99.90
45229;DHT22;30967;51.728;8.682;2022-11-11T03:30:47;11.50;99.90
45229;DHT22;30967;51.728;8.682;2022-11-11T03:33:14;11.50;99.90
45229;DHT22;30967;51.728;8.682;2022-11-11T03:35:40;11.50;99.90
45229;DHT22;30967;51.728;8.682;2022-11-11T03:38:09;11.50;99.90
45229;DHT22;30967;51.728;8.682;2022-11-11T03:40:44;11.50;99.90
45229;DHT22;30967;51.728;8.682;2022-11-11T03:43:12;11.50;99.90
45229;DHT22;30967;51.728;8.682;2022-11-11T03:45:38;11.50;99.90
45229;DHT22;30967;51.728;8.682;2022-11-11T03:48:04;11.50;99.90
45229;DHT22;30967;51.728;8.682;2022-11-11T03:50:53;11.50;99.90
45229;DHT22;30967;51.728;8.682;2022-11-11T03:53:19;11.40;99.90
45229;DHT22;30967;51.728;8.682;2022-11-11T03:55:46;11.40;99.90
45229;DHT22;30967;51.728;8.682;2022-11-11T03:58:12;11.40;99.90
45229;DHT22;30967;51.728;8.682;2022-11-11T04:00:47;11.40;99.90
45229;DHT22;30967;51.728;8.682;2022-11-11T04:03:17;11.40;99.90
45229;DHT22;30967;51.728;8.682;2022-11-11T04:06:16;11.40;99.90
45229;DHT22;30967;51.728;8.682;2022-11-11T04:09:01;11.40;99.90
45229;DHT22;30967;51.728;8.682;2022-11-11T04:11:52;11.40;99.90
45229;DHT22;30967;51.728;8.682;2022-11-11T04:14:18;11.40;99.90
45229;DHT22;30967;51.728;8.682;2022-11-11T04:17:02;11.30;99.90
45229;DHT22;30967;51.728;8.682;2022-11-11T04:19:28;11.30;99.90
45229;DHT22;30967;51.728;8.682;2022-11-11T04:22:12;11.30;99.90
45229;DHT22;30967;51.728;8.682;2022-11-11T04:24:37;11.30;99.90
45229;DHT22;30967;51.728;8.682;2022-11-11T04:27:21;11.30;99.90
45229;DHT22;30967;51.728;8.682;2022-11-11T04:29:48;11.30;99.90
45229;DHT22;30967;51.728;8.682;2022-11-11T04:32:19;11.30;99.90
45229;DHT22;30967;51.728;8.682;2022-11-11T04:35:06;11.30;99.90
45229;DHT22;30967;51.728;8.682;2022-11-11T04:37:34;11.30;99.90
45229;DHT22;30967;51.728;8.682;2022-11-11T04:40:00;11.30;99.90
45229;DHT22;30967;51.728;8.682;2022-11-11T04:42:44;11.30;99.90
45229;DHT22;30967;51.728;8.682;2022-11-11T04:45:11;11.30;99.90
45229;DHT22;30967;51.728;8.682;2022-11-11T04:48:12;11.30;99.90
45229;DHT22;30967;51.728;8.682;2022-11-11T04:50:40;11.30;99.90
45229;DHT22;30967;51.728;8.682;2022-11-11T04:53:08;11.20;99.90
45229;DHT22;30967;51.728;8.682;2022-11-11T04:55:35;11.20;99.90
45229;DHT22;30967;51.728;8.682;2022-11-11T04:58:23;11.20;99.90
45229;DHT22;30967;51.728;8.682;2022-11-11T05:00:49;11.20;99.90
45229;DHT22;30967;51.728;8.682;2022-11-11T05:03:16;11.20;99.90
45229;DHT22;30967;51.728;8.682;2022-11-11T05:06:06;11.20;99.90
45229;DHT22;30967;51.728;8.682;2022-11-11T05:08:50;11.20;99.90
45229;DHT22;30967;51.728;8.682;2022-11-11T05:11:28;11.20;99.90
45229;DHT22;30967;51.728;8.682;2022-11-11T05:13:56;11.20;99.90
45229;DHT22;30967;51.728;8.682;2022-11-11T05:16:52;11.20;99.90
45229;DHT22;30967;51.728;8.682;2022-11-11T05:19:37;11.20;99.90
45229;DHT22;30967;51.728;8.682;2022-11-11T05:22:27;11.10;99.90
45229;DHT22;30967;51.728;8.682;2022-11-11T05:24:53;11.10;99.90
45229;DHT22;30967;51.728;8.682;2022-11-11T05:27:39;11.10;99.90
45229;DHT22;30967;51.728;8.682;2022-11-11T05:30:07;11.10;99.90
45229;DHT22;30967;51.728;8.682;2022-11-11T05:32:33;11.10;99.90
45229;DHT22;30967;51.728;8.682;2022-11-11T05:34:59;11.10;99.90
45229;DHT22;30967;51.728;8.682;2022-11-11T05:37:24;11.10;99.90
45229;DHT22;30967;51.728;8.682;2022-11-11T05:39:50;11.10;99.90
45229;DHT22;30967;51.728;8.682;2022-11-11T05:42:16;11.10;99.90
45229;DHT22;30967;51.728;8.682;2022-11-11T05:44:42;11.10;99.90
45229;DHT22;30967;51.728;8.682;2022-11-11T05:47:08;11.10;99.90
45229;DHT22;30967;51.728;8.682;2022-11-11T05:49:37;11.10;99.90
45229;DHT22;30967;51.728;8.682;2022-11-11T05:52:04;11.10;99.90
45229;DHT22;30967;51.728;8.682;2022-11-11T05:54:34;11.10;99.90
45229;DHT22;30967;51.728;8.682;2022-11-11T05:56:59;11.20;99.90
45229;DHT22;30967;51.728;8.682;2022-11-11T05:59:25;11.20;99.90
45229;DHT22;30967;51.728;8.682;2022-11-11T06:01:51;11.20;99.90
45229;DHT22;30967;51.728;8.682;2022-11-11T06:04:16;11.20;99.90
45229;DHT22;30967;51.728;8.682;2022-11-11T06:06:42;11.20;99.90
45229;DHT22;30967;51.728;8.682;2022-11-11T06:09:08;11.20;99.90
45229;DHT22;30967;51.728;8.682;2022-11-11T06:11:34;11.10;99.90
45229;DHT22;30967;51.728;8.682;2022-11-11T06:14:00;11.10;99.90
45229;DHT22;30967;51.728;8.682;2022-11-11T06:16:25;11.10;99.90
45229;DHT22;30967;51.728;8.682;2022-11-11T06:19:04;11.10;99.90
45229;DHT22;30967;51.728;8.682;2022-11-11T06:21:30;11.10;99.90
45229;DHT22;30967;51.728;8.682;2022-11-11T06:23:57;11.10;99.90
45229;DHT22;30967;51.728;8.682;2022-11-11T06:26:22;11.10;99.90
45229;DHT22;30967;51.728;8.682;2022-11-11T06:28:49;11.10;99.90
45229;DHT22;30967;51.728;8.682;2022-11-11T06:31:21;11.10;99.90
45229;DHT22;30967;51.728;8.682;2022-11-11T06:33:47;11.10;99.90
45229;DHT22;30967;51.728;8.682;2022-11-11T06:36:15;11.10;99.90
45229;DHT22;30967;51.728;8.682;2022-11-11T06:38:41;11.10;99.90
45229;DHT22;30967;51.728;8.682;2022-11-11T06:41:08;11.10;99.90
45229;DHT22;30967;51.728;8.682;2022-11-11T06:43:37;11.00;99.90
45229;DHT22;30967;51.728;8.682;2022-11-11T06:46:03;11.10;99.90
45229;DHT22;30967;51.728;8.682;2022-11-11T06:48:29;11.10;99.90
45229;DHT22;30967;51.728;8.682;2022-11-11T06:51:04;11.00;99.90
45229;DHT22;30967;51.728;8.682;2022-11-11T06:53:30;11.00;99.90
45229;DHT22;30967;51.728;8.682;2022-11-11T06:55:56;11.10;99.90
45229;DHT22;30967;51.728;8.682;2022-11-11T06:58:23;11.00;99.90
45229;DHT22;30967;51.728;8.682;2022-11-11T07:00:49;11.00;99.90
45229;DHT22;30967;51.728;8.682;2022-11-11T07:03:18;11.10;99.90
45229;DHT22;30967;51.728;8.682;2022-11-11T07:05:45;11.10;99.90
45229;DHT22;30967;51.728;8.682;2022-11-11T07:08:14;11.00;99.90
45229;DHT22;30967;51.728;8.682;2022-11-11T07:10:43;11.00;99.90
45229;DHT22;30967;51.728;8.682;2022-11-11T07:13:14;11.00;99.90
45229;DHT22;30967;51.728;8.682;2022-11-11T07:15:41;11.00;99.90
45229;DHT22;30967;51.728;8.682;2022-11-11T07:18:08;11.10;99.90
45229;DHT22;30967;51.728;8.682;2022-11-11T07:20:34;11.00;99.90
45229;DHT22;30967;51.728;8.682;2022-11-11T07:23:03;11.10;99.90
45229;DHT22;30967;51.728;8.682;2022-11-11T07:25:32;11.00;99.90
45229;DHT22;30967;51.728;8.682;2022-11-11T07:27:59;11.00;99.90
45229;DHT22;30967;51.728;8.682;2022-11-11T07:30:26;11.00;99.90
45229;DHT22;30967;51.728;8.682;2022-11-11T07:32:52;11.00;99.90
45229;DHT22;30967;51.728;8.682;2022-11-11T07:35:20;11.00;99.90
45229;DHT22;30967;51.728;8.682;2022-11-11T07:37:46;11.00;99.90
45229;DHT22;30967;51.728;8.682;2022-11-11T07:40:13;11.00;99.90
45229;DHT22;30967;51.728;8.682;2022-11-11T07:42:40;11.00;99.90
45229;DHT22;30967;51.728;8.682;2022-11-11T07:45:06;11.00;99.90
45229;DHT22;30967;51.728;8.682;2022-11-11T07:47:32;11.00;99.90
45229;DHT22;30967;51.728;8.682;2022-11-11T07:50:04;11.00;99.90
45229;DHT22;30967;51.728;8.682;2022-11-11T07:52:30;11.00;99.90
45229;DHT22;30967;51.728;8.682;2022-11-11T07:54:56;11.00;99.90
45229;DHT22;30967;51.728;8.682;2022-11-11T07:57:22;11.00;99.90
45229;DHT22;30967;51.728;8.682;2022-11-11T07:59:48;11.00;99.90
45229;DHT22;30967;51.728;8.682;2022-11-11T08:02:14;11.00;99.90
45229;DHT22;30967;51.728;8.682;2022-11-11T08:04:40;11.00;99.90
45229;DHT22;30967;51.728;8.682;2022-11-11T08:07:05;11.00;99.90
45229;DHT22;30967;51.728;8.682;2022-11-11T08:09:32;11.00;99.90
45229;DHT22;30967;51.728;8.682;2022-11-11T08:11:59;11.10;99.90
45229;DHT22;30967;51.728;8.682;2022-11-11T08:14:43;11.00;99.90
45229;DHT22;30967;51.728;8.682;2022-11-11T08:17:09;11.10;99.90
45229;DHT22;30967;51.728;8.682;2022-11-11T08:19:36;11.10;99.90
45229;DHT22;30967;51.728;8.682;2022-11-11T08:22:01;11.10;99.90
45229;DHT22;30967;51.728;8.682;2022-11-11T08:24:28;11.10;99.90
45229;DHT22;30967;51.728;8.682;2022-11-11T08:26:56;11.10;99.90
45229;DHT22;30967;51.728;8.682;2022-11-11T08:29:22;11.10;99.90
45229;DHT22;30967;51.728;8.682;2022-11-11T08:31:48;11.10;99.90
45229;DHT22;30967;51.728;8.682;2022-11-11T08:34:13;11.10;99.90
45229;DHT22;30967;51.728;8.682;2022-11-11T08:36:43;11.10;99.90
45229;DHT22;30967;51.728;8.682;2022-11-11T08:39:08;11.20;99.90
45229;DHT22;30967;51.728;8.682;2022-11-11T08:41:34;11.20;99.90
45229;DHT22;30967;51.728;8.682;2022-11-11T08:44:01;11.20;99.90
45229;DHT22;30967;51.728;8.682;2022-11-11T08:46:26;11.20;99.90
45229;DHT22;30967;51.728;8.682;2022-11-11T08:48:52;11.20;99.90
45229;DHT22;30967;51.728;8.682;2022-11-11T08:51:19;11.30;99.90
45229;DHT22;30967;51.728;8.682;2022-11-11T08:53:45;11.30;99.90
45229;DHT22;30967;51.728;8.682;2022-11-11T08:56:10;11.30;99.90
45229;DHT22;30967;51.728;8.682;2022-11-11T08:58:37;11.40;99.90
45229;DHT22;30967;51.728;8.682;2022-11-11T09:01:02;11.40;99.90
45229;DHT22;30967;51.728;8.682;2022-11-11T09:03:28;11.40;99.90
45229;DHT22;30967;51.728;8.682;2022-11-11T09:05:54;11.40;99.90
45229;DHT22;30967;51.728;8.682;2022-11-11T09:08:20;11.50;99.90
45229;DHT22;30967;51.728;8.682;2022-11-11T09:10:46;11.50;99.90
45229;DHT22;30967;51.728;8.682;2022-11-11T09:13:11;11.60;99.90
45229;DHT22;30967;51.728;8.682;2022-11-11T09:15:45;11.60;99.90
45229;DHT22;30967;51.728;8.682;2022-11-11T09:18:10;11.70;99.90
45229;DHT22;30967;51.728;8.682;2022-11-11T09:20:40;11.70;99.90
45229;DHT22;30967;51.728;8.682;2022-11-11T09:23:07;11.80;99.90
45229;DHT22;30967;51.728;8.682;2022-11-11T09:25:32;11.80;99.90
45229;DHT22;30967;51.728;8.682;2022-11-11T09:28:01;11.80;99.90
45229;DHT22;30967;51.728;8.682;2022-11-11T09:30:28;11.90;99.90
45229;DHT22;30967;51.728;8.682;2022-11-11T09:32:54;12.00;99.90
45229;DHT22;30967;51.728;8.682;2022-11-11T09:35:19;12.00;99.90
45229;DHT22;30967;51.728;8.682;2022-11-11T09:37:53;12.10;99.90
45229;DHT22;30967;51.728;8.682;2022-11-11T09:40:21;12.20;99.90
45229;DHT22;30967;51.728;8.682;2022-11-11T09:42:55;12.20;99.90
45229;DHT22;30967;51.728;8.682;2022-11-11T09:45:39;12.30;99.90
45229;DHT22;30967;51.728;8.682;2022-11-11T09:48:20;12.30;99.90
45229;DHT22;30967;51.728;8.682;2022-11-11T09:50:52;12.40;99.90
45229;DHT22;30967;51.728;8.682;2022-11-11T09:53:27;12.50;99.90
45229;DHT22;30967;51.728;8.682;2022-11-11T09:55:59;12.60;99.90
45229;DHT22;30967;51.728;8.682;2022-11-11T09:58:28;12.70;99.90
45229;DHT22;30967;51.728;8.682;2022-11-11T10:03:33;12.80;99.90
45229;DHT22;30967;51.728;8.682;2022-11-11T10:06:08;13.00;99.90
45229;DHT22;30967;51.728;8.682;2022-11-11T10:08:51;13.10;99.90
45229;DHT22;30967;51.728;8.682;2022-11-11T10:14:12;13.20;99.90
45229;DHT22;30967;51.728;8.682;2022-11-11T10:20:01;13.50;99.90
45229;DHT22;30967;51.728;8.682;2022-11-11T10:22:42;13.60;99.90
45229;DHT22;30967;51.728;8.682;2022-11-11T10:27:40;13.80;99.90
45229;DHT22;30967;51.728;8.682;2022-11-11T10:30:19;13.90;99.90
45229;DHT22;30967;51.728;8.682;2022-11-11T10:32:52;14.00;99.90
45229;DHT22;30967;51.728;8.682;2022-11-11T10:35:24;14.00;99.90
45229;DHT22;30967;51.728;8.682;2022-11-11T10:38:04;14.10;99.90
45229;DHT22;30967;51.728;8.682;2022-11-11T10:40:47;14.20;99.90
45229;DHT22;30967;51.728;8.682;2022-11-11T10:43:25;14.20;99.90
45229;DHT22;30967;51.728;8.682;2022-11-11T10:48:36;14.40;99.90
45229;DHT22;30967;51.728;8.682;2022-11-11T10:51:04;14.50;99.90
45229;DHT22;30967;51.728;8.682;2022-11-11T10:59:08;14.60;99.90
45229;DHT22;30967;51.728;8.682;2022-11-11T11:04:36;14.70;99.90
45229;DHT22;30967;51.728;8.682;2022-11-11T11:07:05;14.90;99.90
45229;DHT22;30967;51.728;8.682;2022-11-11T11:09:47;14.90;99.90
45229;DHT22;30967;51.728;8.682;2022-11-11T11:12:21;15.00;99.90
45229;DHT22;30967;51.728;8.682;2022-11-11T11:14:53;15.00;99.90
45229;DHT22;30967;51.728;8.682;2022-11-11T11:17:23;15.00;99.90
45229;DHT22;30967;51.728;8.682;2022-11-11T11:20:07;15.00;99.90
45229;DHT22;30967;51.728;8.682;2022-11-11T11:22:49;15.10;99.90
45229;DHT22;30967;51.728;8.682;2022-11-11T11:25:17;15.10;99.90
45229;DHT22;30967;51.728;8.682;2022-11-11T11:27:44;15.20;99.90
45229;DHT22;30967;51.728;8.682;2022-11-11T11:30:17;15.20;99.90
45229;DHT22;30967;51.728;8.682;2022-11-11T11:32:57;15.20;99.90
45229;DHT22;30967;51.728;8.682;2022-11-11T11:35:36;15.20;99.80
45229;DHT22;30967;51.728;8.682;2022-11-11T11:38:03;15.30;99.90
45229;DHT22;30967;51.728;8.682;2022-11-11T11:43:37;15.40;99.40
45229;DHT22;30967;51.728;8.682;2022-11-11T11:46:04;15.40;99.00
45229;DHT22;30967;51.728;8.682;2022-11-11T11:48:46;15.40;99.50
45229;DHT22;30967;51.728;8.682;2022-11-11T11:51:32;15.40;98.10
45229;DHT22;30967;51.728;8.682;2022-11-11T11:54:12;15.50;98.50
45229;DHT22;30967;51.728;8.682;2022-11-11T11:56:40;15.60;98.80
45229;DHT22;30967;51.728;8.682;2022-11-11T12:01:57;15.70;98.30
45229;DHT22;30967;51.728;8.682;2022-11-11T12:04:34;15.70;98.70
45229;DHT22;30967;51.728;8.682;2022-11-11T12:20:54;15.90;98.60
45229;DHT22;30967;51.728;8.682;2022-11-11T12:26:41;16.00;97.80
45229;DHT22;30967;51.728;8.682;2022-11-11T12:29:37;16.10;98.30
45229;DHT22;30967;51.728;8.682;2022-11-11T12:32:14;16.10;97.30
45229;DHT22;30967;51.728;8.682;2022-11-11T12:34:47;16.10;97.10
45229;DHT22;30967;51.728;8.682;2022-11-11T12:44:03;16.30;96.40
45229;DHT22;30967;51.728;8.682;2022-11-11T12:47:01;16.40;97.40
45229;DHT22;30967;51.728;8.682;2022-11-11T12:49:56;16.50;96.20
45229;DHT22;30967;51.728;8.682;2022-11-11T13:04:11;16.80;97.10
45229;DHT22;30967;51.728;8.682;2022-11-11T13:07:28;16.80;96.50
45229;DHT22;30967;51.728;8.682;2022-11-11T13:15:30;17.00;96.60
45229;DHT22;30967;51.728;8.682;2022-11-11T13:18:01;17.00;96.60
45229;DHT22;30967;51.728;8.682;2022-11-11T13:20:54;17.10;96.50
45229;DHT22;30967;51.728;8.682;2022-11-11T13:23:22;17.10;95.60
45229;DHT22;30967;51.728;8.682;2022-11-11T13:25:56;17.20;95.00
45229;DHT22;30967;51.728;8.682;2022-11-11T13:28:38;17.20;95.50
45229;DHT22;30967;51.728;8.682;2022-11-11T13:33:43;17.40;95.50
45229;DHT22;30967;51.728;8.682;2022-11-11T13:36:14;17.40;95.60
45229;DHT22;30967;51.728;8.682;2022-11-11T13:38:50;17.50;95.80
45229;DHT22;30967;51.728;8.682;2022-11-11T13:41:30;17.50;96.30
45229;DHT22;30967;51.728;8.682;2022-11-11T13:43:59;17.60;96.40
45229;DHT22;30967;51.728;8.682;2022-11-11T13:46:43;17.60;95.70
45229;DHT22;30967;51.728;8.682;2022-11-11T13:49:30;17.70;95.60
45229;DHT22;30967;51.728;8.682;2022-11-11T13:52:01;17.80;95.60
45229;DHT22;30967;51.728;8.682;2022-11-11T13:54:40;17.80;96.80
45229;DHT22;30967;51.728;8.682;2022-11-11T13:57:20;17.90;97.30
45229;DHT22;30967;51.728;8.682;2022-11-11T14:00:01;18.00;97.40
45229;DHT22;30967;51.728;8.682;2022-11-11T14:02:37;18.00;97.80
45229;DHT22;30967;51.728;8.682;2022-11-11T14:12:48;18.20;97.60
45229;DHT22;30967;51.728;8.682;2022-11-11T14:15:48;18.30;97.70
45229;DHT22;30967;51.728;8.682;2022-11-11T14:23:31;18.40;98.00
45229;DHT22;30967;51.728;8.682;2022-11-11T14:26:14;18.50;98.00
45229;DHT22;30967;51.728;8.682;2022-11-11T14:33:55;18.60;97.90
45229;DHT22;30967;51.728;8.682;2022-11-11T14:36:47;18.70;97.80
45229;DHT22;30967;51.728;8.682;2022-11-11T14:39:36;18.70;97.90
45229;DHT22;30967;51.728;8.682;2022-11-11T14:42:04;18.80;97.90
45229;DHT22;30967;51.728;8.682;2022-11-11T14:49:52;18.80;98.10
45229;DHT22;30967;51.728;8.682;2022-11-11T14:55:20;18.80;98.10
45229;DHT22;30967;51.728;8.682;2022-11-11T15:00:21;18.70;98.10
45229;DHT22;30967;51.728;8.682;2022-11-11T15:03:25;18.70;97.70
45229;DHT22;30967;51.728;8.682;2022-11-11T15:06:01;18.70;97.50
45229;DHT22;30967;51.728;8.682;2022-11-11T15:14:07;18.60;96.70
45229;DHT22;30967;51.728;8.682;2022-11-11T15:22:44;18.50;97.00
45229;DHT22;30967;51.728;8.682;2022-11-11T15:27:58;18.40;96.20
45229;DHT22;30967;51.728;8.682;2022-11-11T15:33:45;18.30;96.30
45229;DHT22;30967;51.728;8.682;2022-11-11T15:36:20;18.20;96.70
45229;DHT22;30967;51.728;8.682;2022-11-11T15:38:51;18.10;96.70
45229;DHT22;30967;51.728;8.682;2022-11-11T15:41:25;18.10;96.60
45229;DHT22;30967;51.728;8.682;2022-11-11T15:43:59;18.00;96.60
45229;DHT22;30967;51.728;8.682;2022-11-11T15:46:28;17.90;96.80
45229;DHT22;30967;51.728;8.682;2022-11-11T15:48:54;17.80;96.80
45229;DHT22;30967;51.728;8.682;2022-11-11T15:51:32;17.80;96.80
45229;DHT22;30967;51.728;8.682;2022-11-11T15:54:19;17.70;96.70
45229;DHT22;30967;51.728;8.682;2022-11-11T15:56:47;17.60;96.70
45229;DHT22;30967;51.728;8.682;2022-11-11T15:59:29;17.50;96.80
45229;DHT22;30967;51.728;8.682;2022-11-11T16:01:58;17.50;96.80
45229;DHT22;30967;51.728;8.682;2022-11-11T16:04:50;17.40;97.00
45229;DHT22;30967;51.728;8.682;2022-11-11T16:07:24;17.30;97.10
45229;DHT22;30967;51.728;8.682;2022-11-11T16:09:54;17.20;97.20
45229;DHT22;30967;51.728;8.682;2022-11-11T16:12:38;17.00;97.40
45229;DHT22;30967;51.728;8.682;2022-11-11T16:15:08;16.90;97.30
45229;DHT22;30967;51.728;8.682;2022-11-11T16:17:38;16.80;97.40
45229;DHT22;30967;51.728;8.682;2022-11-11T16:20:12;16.70;97.40
45229;DHT22;30967;51.728;8.682;2022-11-11T16:22:39;16.60;97.60
45229;DHT22;30967;51.728;8.682;2022-11-11T16:25:16;16.50;97.40
45229;DHT22;30967;51.728;8.682;2022-11-11T16:27:42;16.50;97.50
45229;DHT22;30967;51.728;8.682;2022-11-11T16:30:27;16.40;97.60
45229;DHT22;30967;51.728;8.682;2022-11-11T16:32:54;16.40;97.60
45229;DHT22;30967;51.728;8.682;2022-11-11T16:35:24;16.30;97.90
45229;DHT22;30967;51.728;8.682;2022-11-11T16:37:52;16.20;97.70
45229;DHT22;30967;51.728;8.682;2022-11-11T16:43:26;15.90;97.60
45229;DHT22;30967;51.728;8.682;2022-11-11T16:46:04;15.80;97.70
45229;DHT22;30967;51.728;8.682;2022-11-11T16:51:00;15.60;97.90
45229;DHT22;30967;51.728;8.682;2022-11-11T16:53:30;15.50;97.90
45229;DHT22;30967;51.728;8.682;2022-11-11T16:56:00;15.40;97.90
45229;DHT22;30967;51.728;8.682;2022-11-11T16:58:27;15.30;98.00
45229;DHT22;30967;51.728;8.682;2022-11-11T17:01:02;15.30;98.10
45229;DHT22;30967;51.728;8.682;2022-11-11T17:03:29;15.20;98.10
45229;DHT22;30967;51.728;8.682;2022-11-11T17:08:31;15.00;98.00
45229;DHT22;30967;51.728;8.682;2022-11-11T17:10:59;15.00;98.00
45229;DHT22;30967;51.728;8.682;2022-11-11T17:13:25;14.90;98.00
45229;DHT22;30967;51.728;8.682;2022-11-11T17:15:53;14.90;98.00
45229;DHT22;30967;51.728;8.682;2022-11-11T17:18:19;14.90;97.90
45229;DHT22;30967;51.728;8.682;2022-11-11T17:20:47;14.80;97.90
45229;DHT22;30967;51.728;8.682;2022-11-11T17:23:13;14.70;97.80
45229;DHT22;30967;51.728;8.682;2022-11-11T17:25:39;14.70;97.90
45229;DHT22;30967;51.728;8.682;2022-11-11T17:28:04;14.70;97.90
45229;DHT22;30967;51.728;8.682;2022-11-11T17:30:30;14.60;97.80
45229;DHT22;30967;51.728;8.682;2022-11-11T17:32:56;14.50;97.80
45229;DHT22;30967;51.728;8.682;2022-11-11T17:35:21;14.50;97.70
45229;DHT22;30967;51.728;8.682;2022-11-11T17:37:47;14.40;97.70
45229;DHT22;30967;51.728;8.682;2022-11-11T17:40:12;14.40;97.90
45229;DHT22;30967;51.728;8.682;2022-11-11T17:42:39;14.40;97.60
45229;DHT22;30967;51.728;8.682;2022-11-11T17:45:05;14.30;97.50
45229;DHT22;30967;51.728;8.682;2022-11-11T17:47:31;14.30;97.60
45229;DHT22;30967;51.728;8.682;2022-11-11T17:49:57;14.30;97.50
45229;DHT22;30967;51.728;8.682;2022-11-11T17:52:23;14.20;97.50
45229;DHT22;30967;51.728;8.682;2022-11-11T17:54:49;14.20;97.60
45229;DHT22;30967;51.728;8.682;2022-11-11T17:57:14;14.20;97.60
45229;DHT22;30967;51.728;8.682;2022-11-11T17:59:40;14.10;97.60
45229;DHT22;30967;51.728;8.682;2022-11-11T18:02:06;14.10;97.60
45229;DHT22;30967;51.728;8.682;2022-11-11T18:04:33;14.00;97.70
45229;DHT22;30967;51.728;8.682;2022-11-11T18:06:59;14.00;97.70